createdAt,value
2023-01-13T00:15:45.737Z,10.40
2023-01-13T00:28:37.681Z,10.60
2023-01-13T00:31:30.824Z,10.70
2023-01-13T00:37:39.521Z,10.70
2023-01-13T00:40:14.795Z,10.70
2023-01-13T00:43:04.716Z,10.70
2023-01-13T00:45:43.637Z,10.70
2023-01-13T00:48:13.123Z,10.60
2023-01-13T00:50:41.999Z,10.60
2023-01-13T00:53:09.243Z,10.60
2023-01-13T00:55:36.426Z,10.60
2023-01-13T00:58:09.136Z,10.60
2023-01-13T01:00:58.286Z,10.60
2023-01-13T01:03:31.867Z,10.50
2023-01-13T01:06:09.010Z,10.40
2023-01-13T01:08:45.758Z,10.40
2023-01-13T01:11:18.801Z,10.40
2023-01-13T01:13:46.766Z,10.40
2023-01-13T01:16:33.044Z,10.40
2023-01-13T01:19:04.786Z,10.40
2023-01-13T01:21:43.364Z,10.30
2023-01-13T01:24:11.033Z,10.30
2023-01-13T01:26:51.063Z,10.30
2023-01-13T01:29:25.211Z,10.30
2023-01-13T01:31:52.933Z,10.20
2023-01-13T01:34:20.193Z,10.20
2023-01-13T01:37:03.521Z,10.20
2023-01-13T01:40:04.510Z,10.10
2023-01-13T01:42:59.543Z,10.10
2023-01-13T01:45:43.403Z,10.10
2023-01-13T01:48:24.799Z,10.20
2023-01-13T01:51:01.682Z,10.20
2023-01-13T01:53:31.488Z,10.20
2023-01-13T01:56:00.767Z,10.20
2023-01-13T01:58:42.644Z,10.10
2023-01-13T02:01:13.654Z,10.10
2023-01-13T02:04:01.654Z,10.10
2023-01-13T02:06:36.788Z,10.00
2023-01-13T02:09:04.459Z,10.00
2023-01-13T02:16:10.203Z,10.00
2023-01-13T02:20:05.612Z,10.00
2023-01-13T02:24:28.190Z,9.90
2023-01-13T02:31:12.984Z,10.00
2023-01-13T02:35:14.901Z,10.00
2023-01-13T02:37:51.420Z,10.00
2023-01-13T02:44:49.998Z,10.00
2023-01-13T02:47:56.419Z,10.00
2023-01-13T02:50:52.449Z,10.00
2023-01-13T02:53:56.311Z,10.00
2023-01-13T02:56:59.844Z,10.00
2023-01-13T03:02:34.665Z,10.00
2023-01-13T03:05:22.080Z,9.90
2023-01-13T03:17:08.555Z,9.70
2023-01-13T03:24:15.361Z,9.60
2023-01-13T03:27:19.230Z,9.50
2023-01-13T03:31:20.299Z,9.50
2023-01-13T03:34:31.014Z,9.40
2023-01-13T03:37:13.016Z,9.40
2023-01-13T03:43:30.383Z,9.50
2023-01-13T03:46:29.036Z,9.50
2023-01-13T03:52:34.471Z,9.60
2023-01-13T03:55:46.598Z,9.60
2023-01-13T04:35:09.270Z,9.40
2023-01-13T04:37:50.347Z,9.40
2023-01-13T04:41:06.727Z,9.40
2023-01-13T04:44:03.102Z,9.40
2023-01-13T04:46:37.962Z,9.40
2023-01-13T04:49:06.419Z,9.40
2023-01-13T04:51:59.967Z,9.50
2023-01-13T04:54:27.222Z,9.40
2023-01-13T04:57:21.834Z,9.50
2023-01-13T04:59:49.968Z,9.50
2023-01-13T05:02:33.367Z,9.50
2023-01-13T05:05:15.689Z,9.40
2023-01-13T05:08:06.037Z,9.40
2023-01-13T05:10:40.408Z,9.40
2023-01-13T05:14:27.486Z,9.40
2023-01-13T05:17:08.798Z,9.40
2023-01-13T05:19:46.812Z,9.40
2023-01-13T05:22:39.802Z,9.40
2023-01-13T05:25:25.480Z,9.30
2023-01-13T05:28:01.595Z,9.30
2023-01-13T05:30:42.942Z,9.40
2023-01-13T05:33:50.404Z,9.40
2023-01-13T05:37:05.741Z,9.40
2023-01-13T05:40:10.811Z,9.40
2023-01-13T05:43:26.960Z,9.40
2023-01-13T05:46:34.409Z,9.40
2023-01-13T05:49:30.900Z,9.40
2023-01-13T05:51:58.023Z,9.40
2023-01-13T05:54:30.565Z,9.40
2023-01-13T05:57:05.423Z,9.40
2023-01-13T06:00:06.189Z,9.40
2023-01-13T06:06:02.382Z,9.40
2023-01-13T06:09:00.059Z,9.40
2023-01-13T06:12:05.313Z,9.30
2023-01-13T06:14:49.268Z,9.20
2023-01-13T06:18:32.489Z,9.20
2023-01-13T06:24:17.791Z,9.10
2023-01-13T06:26:54.119Z,9.00
2023-01-13T06:29:25.857Z,9.00
2023-01-13T06:39:53.245Z,9.00
2023-01-13T06:46:30.660Z,8.90
2023-01-13T06:48:58.015Z,8.90
2023-01-13T06:51:44.175Z,8.90
2023-01-13T06:54:20.358Z,8.90
2023-01-13T06:57:22.054Z,8.90
2023-01-13T06:59:40.244Z,9.00
2023-01-13T07:07:17.208Z,9.00
2023-01-13T07:12:27.230Z,8.90
2023-01-13T07:19:33.342Z,8.90
2023-01-13T07:22:12.950Z,8.90
2023-01-13T07:25:02.717Z,8.90
2023-01-13T07:27:38.021Z,8.90
2023-01-13T07:39:25.104Z,9.00
2023-01-13T07:42:18.156Z,9.00
2023-01-13T07:44:46.159Z,9.00
2023-01-13T07:47:53.564Z,9.00
2023-01-13T07:50:38.974Z,9.00
2023-01-13T07:53:12.024Z,9.10
2023-01-13T07:55:44.233Z,9.10
2023-01-13T07:58:23.204Z,9.10
2023-01-13T08:00:54.373Z,9.00
2023-01-13T08:03:42.383Z,9.00
2023-01-13T08:06:11.414Z,9.00
2023-01-13T08:08:39.641Z,9.10
2023-01-13T08:11:08.608Z,9.00
2023-01-13T08:13:39.659Z,9.00
2023-01-13T08:16:11.759Z,9.00
2023-01-13T08:18:40.825Z,9.00
2023-01-13T08:21:13.268Z,9.10
2023-01-13T08:23:43.372Z,9.10
2023-01-13T08:26:15.330Z,9.10
2023-01-13T08:28:45.700Z,9.20
2023-01-13T08:31:17.014Z,9.20
2023-01-13T08:33:57.166Z,9.20
2023-01-13T08:36:25.600Z,9.20
2023-01-13T08:38:56.543Z,9.30
2023-01-13T08:41:42.442Z,9.30
2023-01-13T08:44:09.411Z,9.20
2023-01-13T08:46:37.620Z,9.20
2023-01-13T08:49:05.363Z,9.20
2023-01-13T08:51:45.854Z,9.20
2023-01-13T08:54:34.315Z,9.20
2023-01-13T08:57:05.115Z,9.10
2023-01-13T08:59:35.840Z,9.10
2023-01-13T09:02:19.976Z,9.10
2023-01-13T09:04:52.755Z,9.10
2023-01-13T09:07:26.352Z,9.10
2023-01-13T09:09:53.630Z,9.20
2023-01-13T09:12:40.210Z,9.30
2023-01-13T09:15:08.168Z,9.30
2023-01-13T09:17:37.302Z,9.30
2023-01-13T09:20:06.064Z,9.40
2023-01-13T09:22:36.629Z,9.50
2023-01-13T09:25:04.744Z,9.50
2023-01-13T09:27:32.012Z,9.50
2023-01-13T09:29:59.505Z,9.60
2023-01-13T09:32:26.786Z,9.80
2023-01-13T09:35:02.911Z,9.90
2023-01-13T09:37:43.262Z,10.00
2023-01-13T09:40:43.738Z,10.20
2023-01-13T09:43:59.378Z,10.50
2023-01-13T09:50:32.382Z,10.90
2023-01-13T09:53:09.967Z,11.00
2023-01-13T09:55:37.659Z,11.10
2023-01-13T09:58:18.041Z,11.10
2023-01-13T10:01:04.774Z,11.00
2023-01-13T10:03:35.996Z,11.00
2023-01-13T10:06:26.828Z,11.00
2023-01-13T10:08:58.067Z,10.70
2023-01-13T10:11:56.204Z,10.60
2023-01-13T10:14:43.689Z,10.40
2023-01-13T10:17:31.995Z,10.30
2023-01-13T10:20:24.906Z,10.30
2023-01-13T10:23:20.525Z,10.40
2023-01-13T10:26:37.322Z,10.70
2023-01-13T10:29:20.311Z,11.10
2023-01-13T10:31:48.496Z,11.50
2023-01-13T10:34:17.194Z,11.50
2023-01-13T10:37:09.604Z,11.30
2023-01-13T10:39:45.217Z,11.10
2023-01-13T10:42:29.724Z,11.10
2023-01-13T10:45:01.172Z,11.00
2023-01-13T10:47:39.449Z,10.80
2023-01-13T10:50:12.229Z,10.70
2023-01-13T10:52:57.736Z,10.60
2023-01-13T10:55:42.176Z,10.50
2023-01-13T10:58:32.683Z,10.40
2023-01-13T11:01:28.236Z,10.30
2023-01-13T11:04:28.938Z,10.20
2023-01-13T11:06:58.229Z,10.10
2023-01-13T11:09:29.292Z,10.10
2023-01-13T11:12:00.535Z,10.10
2023-01-13T11:14:44.174Z,10.10
2023-01-13T11:17:33.396Z,10.00
2023-01-13T11:20:34.929Z,10.10
2023-01-13T11:23:28.427Z,10.10
2023-01-13T11:26:11.062Z,10.10
2023-01-13T11:28:57.158Z,10.10
2023-01-13T11:31:52.187Z,10.10
2023-01-13T11:34:42.216Z,10.20
2023-01-13T11:37:30.069Z,10.20
2023-01-13T11:40:49.341Z,10.20
2023-01-13T11:43:38.505Z,10.20
2023-01-13T11:46:09.121Z,10.10
2023-01-13T11:48:42.033Z,10.10
2023-01-13T11:51:32.725Z,10.00
2023-01-13T11:54:33.716Z,9.90
2023-01-13T11:57:32.108Z,9.80
2023-01-13T12:00:16.143Z,9.80
2023-01-13T12:03:29.958Z,9.70
2023-01-13T12:06:13.333Z,9.70
2023-01-13T12:09:17.478Z,9.60
2023-01-13T12:12:25.710Z,9.60
2023-01-13T12:15:24.596Z,9.60
2023-01-13T12:18:44.596Z,9.60
2023-01-13T12:21:29.936Z,9.60
2023-01-13T12:24:25.654Z,9.60
2023-01-13T12:27:32.232Z,9.50
2023-01-13T12:30:11.266Z,9.50
2023-01-13T12:32:41.276Z,9.40
2023-01-13T12:35:33.752Z,9.50
2023-01-13T12:38:31.234Z,9.50
2023-01-13T12:41:38.080Z,9.50
2023-01-13T12:44:22.341Z,9.60
2023-01-13T12:47:01.660Z,9.70
2023-01-13T12:49:37.202Z,9.70
2023-01-13T12:52:16.425Z,9.80
2023-01-13T12:54:44.728Z,10.30
2023-01-13T12:57:39.211Z,10.80
2023-01-13T13:00:09.620Z,10.70
2023-01-13T13:03:12.583Z,10.40
2023-01-13T13:06:09.916Z,10.20
2023-01-13T13:09:06.020Z,10.10
2023-01-13T13:12:04.090Z,10.10
2023-01-13T13:14:42.077Z,10.10
2023-01-13T13:17:33.598Z,10.00
2023-01-13T13:20:01.417Z,9.90
2023-01-13T13:22:39.903Z,9.70
2023-01-13T13:25:23.955Z,9.60
2023-01-13T13:28:19.665Z,9.60
2023-01-13T13:31:36.916Z,9.50
2023-01-13T13:34:12.758Z,9.50
2023-01-13T13:37:26.910Z,9.50
2023-01-13T13:40:15.473Z,9.40
2023-01-13T13:43:29.822Z,9.40
2023-01-13T13:46:15.966Z,9.40
2023-01-13T13:48:56.704Z,9.30
2023-01-13T13:51:42.265Z,9.30
2023-01-13T13:54:22.571Z,9.30
2023-01-13T13:56:51.817Z,9.30
2023-01-13T13:59:26.256Z,9.20
2023-01-13T14:02:02.781Z,9.20
2023-01-13T14:04:36.615Z,9.20
2023-01-13T14:07:23.244Z,9.20
2023-01-13T14:10:04.324Z,9.20
2023-01-13T14:12:38.815Z,9.10
2023-01-13T14:15:27.142Z,9.10
2023-01-13T14:24:17.177Z,9.10
2023-01-13T14:32:27.965Z,9.00
2023-01-13T14:34:57.529Z,8.90
2023-01-13T14:37:41.953Z,8.90
2023-01-13T14:40:36.269Z,8.90
2023-01-13T14:43:21.961Z,8.80
2023-01-13T14:46:00.470Z,8.80
2023-01-13T14:48:35.925Z,8.80
2023-01-13T14:51:10.576Z,8.80
2023-01-13T14:53:46.812Z,8.70
2023-01-13T14:56:46.986Z,8.70
2023-01-13T14:59:48.102Z,8.70
2023-01-13T15:02:40.449Z,8.70
2023-01-13T15:05:20.279Z,8.70
2023-01-13T15:07:55.273Z,8.70
2023-01-13T15:10:37.219Z,8.70
2023-01-13T15:13:07.358Z,8.70
2023-01-13T15:15:39.871Z,8.60
2023-01-13T15:18:17.196Z,8.70
2023-01-13T15:20:45.273Z,8.70
2023-01-13T15:23:18.456Z,8.70
2023-01-13T15:25:47.669Z,8.70
2023-01-13T15:28:26.221Z,8.70
2023-01-13T15:31:01.655Z,8.70
2023-01-13T15:33:29.733Z,8.70
2023-01-13T15:36:01.106Z,8.80
2023-01-13T15:38:28.050Z,8.90
2023-01-13T15:40:54.927Z,8.90
2023-01-13T15:43:44.060Z,8.90
2023-01-13T15:46:36.252Z,8.90
2023-01-13T15:49:49.669Z,9.00
2023-01-13T15:52:34.186Z,9.00
2023-01-13T15:55:22.140Z,9.10
2023-01-13T15:57:50.915Z,9.10
2023-01-13T16:00:47.474Z,9.10
2023-01-13T16:03:16.794Z,9.00
2023-01-13T16:05:46.641Z,9.10
2023-01-13T16:09:05.323Z,9.10
2023-01-13T16:14:39.635Z,9.10
2023-01-13T16:17:30.005Z,9.10
2023-01-13T16:20:06.108Z,9.10
2023-01-13T16:29:54.649Z,9.00
2023-01-13T16:33:00.222Z,8.90
2023-01-13T16:37:00.531Z,8.90
2023-01-13T16:39:56.385Z,8.80
2023-01-13T16:49:22.374Z,8.90
2023-01-13T17:19:57.506Z,9.00
2023-01-13T17:22:58.045Z,9.00
2023-01-13T17:39:37.724Z,9.00
2023-01-13T17:42:32.193Z,9.00
2023-01-13T17:45:47.490Z,9.00
2023-01-13T17:54:44.876Z,9.00
2023-01-13T19:20:09.523Z,9.20
2023-01-13T19:23:37.733Z,9.20
2023-01-13T19:27:01.045Z,9.20
2023-01-13T19:30:05.392Z,9.20
2023-01-13T19:50:12.846Z,9.10
2023-01-13T20:17:14.003Z,8.80
2023-01-13T20:19:57.473Z,8.80
2023-01-13T20:23:53.837Z,8.70
2023-01-13T20:27:31.734Z,8.70
2023-01-13T20:31:11.835Z,8.70
2023-01-13T20:43:40.793Z,8.60
2023-01-13T20:46:35.976Z,8.50
2023-01-13T21:15:34.045Z,8.30
2023-01-13T21:19:21.579Z,8.30
2023-01-13T21:26:42.633Z,8.30
2023-01-13T22:18:47.281Z,8.50
2023-01-13T22:25:50.405Z,8.50
2023-01-13T23:03:19.861Z,8.60
2023-01-13T23:06:02.458Z,8.60
2023-01-13T23:11:37.377Z,8.50
2023-01-13T23:14:14.491Z,8.50
2023-01-13T23:16:43.298Z,8.50
2023-01-13T23:19:11.536Z,8.50
2023-01-13T23:21:46.520Z,8.50
2023-01-13T23:24:13.946Z,8.50
2023-01-13T23:26:47.112Z,8.50
2023-01-13T23:29:20.575Z,8.50
2023-01-13T23:31:53.663Z,8.40
2023-01-13T23:34:33.722Z,8.40
2023-01-13T23:37:02.962Z,8.40
2023-01-13T23:39:31.072Z,8.30
2023-01-13T23:41:59.588Z,8.40
2023-01-13T23:44:29.371Z,8.30
2023-01-13T23:47:00.653Z,8.30
2023-01-13T23:49:32.425Z,8.30
2023-01-13T23:52:00.575Z,8.30
2023-01-13T23:54:28.405Z,8.30
2023-01-13T23:56:55.459Z,8.30
2023-01-13T23:59:22.862Z,8.30
